createdAt,value
2023-05-26T00:00:15.690Z,7.20
2023-05-26T00:02:44.792Z,5.83
2023-05-26T00:05:14.175Z,6.63
2023-05-26T00:07:42.744Z,7.13
2023-05-26T00:10:12.240Z,6.43
2023-05-26T00:12:42.023Z,6.20
2023-05-26T00:15:11.037Z,7.40
2023-05-26T00:17:39.316Z,5.67
2023-05-26T00:20:10.752Z,7.20
2023-05-26T00:22:38.939Z,6.37
2023-05-26T00:25:09.195Z,7.60
2023-05-26T00:27:37.364Z,6.63
2023-05-26T00:30:08.316Z,6.30
2023-05-26T00:32:36.496Z,6.57
2023-05-26T00:35:05.075Z,6.93
2023-05-26T00:37:33.705Z,5.93
2023-05-26T00:40:01.920Z,6.20
2023-05-26T00:42:30.107Z,7.57
2023-05-26T00:44:58.325Z,6.37
2023-05-26T00:47:27.875Z,5.73
2023-05-26T00:49:56.136Z,5.80
2023-05-26T00:52:24.648Z,5.90
2023-05-26T00:54:52.964Z,6.57
2023-05-26T00:57:21.894Z,5.93
2023-05-26T00:59:51.277Z,6.30
2023-05-26T01:02:22.069Z,5.80
2023-05-26T01:04:53.624Z,6.30
2023-05-26T01:07:22.175Z,6.00
2023-05-26T01:09:52.143Z,5.60
2023-05-26T01:12:29.473Z,7.57
2023-05-26T01:15:03.149Z,6.30
2023-05-26T01:17:38.104Z,5.90
2023-05-26T01:20:18.160Z,6.30
2023-05-26T01:23:08.744Z,6.57
2023-05-26T01:26:02.142Z,6.77
2023-05-26T01:28:33.660Z,7.00
2023-05-26T01:31:02.739Z,5.77
2023-05-26T01:33:30.922Z,6.23
2023-05-26T01:35:59.115Z,5.07
2023-05-26T01:38:27.441Z,6.27
2023-05-26T01:41:04.189Z,5.30
2023-05-26T01:43:40.862Z,5.10
2023-05-26T01:46:16.441Z,6.60
2023-05-26T01:48:47.897Z,5.40
2023-05-26T01:51:18.267Z,5.60
2023-05-26T01:53:50.138Z,5.67
2023-05-26T01:56:21.638Z,5.90
2023-05-26T01:58:53.960Z,5.70
2023-05-26T02:01:25.822Z,5.20
2023-05-26T02:03:54.178Z,5.47
2023-05-26T02:06:22.969Z,5.33
2023-05-26T02:08:51.802Z,4.20
2023-05-26T02:11:20.094Z,5.40
2023-05-26T02:13:48.303Z,5.30
2023-05-26T02:16:17.898Z,4.70
2023-05-26T02:18:46.865Z,6.07
2023-05-26T02:21:15.131Z,4.80
2023-05-26T02:23:44.778Z,5.43
2023-05-26T02:26:13.143Z,4.50
2023-05-26T02:28:42.704Z,4.50
2023-05-26T02:31:11.002Z,5.40
2023-05-26T02:33:43.116Z,6.00
2023-05-26T02:36:12.257Z,5.80
2023-05-26T02:38:40.495Z,4.90
2023-05-26T02:41:09.776Z,5.50
2023-05-26T02:43:40.487Z,5.60
2023-05-26T02:46:08.765Z,4.40
2023-05-26T02:48:37.096Z,4.60
2023-05-26T02:51:07.363Z,4.90
2023-05-26T02:53:35.845Z,4.20
2023-05-26T02:56:04.187Z,5.73
2023-05-26T02:58:32.634Z,4.57
2023-05-26T03:01:01.172Z,4.83
2023-05-26T03:03:29.911Z,4.60
2023-05-26T03:05:59.765Z,4.50
2023-05-26T03:08:29.314Z,4.80
2023-05-26T03:11:10.117Z,4.77
2023-05-26T03:13:39.527Z,5.00
2023-05-26T03:16:08.340Z,4.37
2023-05-26T03:18:36.590Z,5.20
2023-05-26T03:21:07.179Z,6.10
2023-05-26T03:23:57.003Z,5.63
2023-05-26T03:26:26.331Z,5.73
2023-05-26T03:28:54.486Z,5.53
2023-05-26T03:31:22.801Z,6.07
2023-05-26T03:33:51.003Z,5.30
2023-05-26T03:36:19.175Z,5.43
2023-05-26T03:38:47.361Z,5.43
2023-05-26T03:41:16.903Z,5.00
2023-05-26T03:43:45.365Z,5.47
2023-05-26T03:46:13.560Z,4.90
2023-05-26T03:48:41.989Z,6.53
2023-05-26T03:51:10.435Z,5.40
2023-05-26T03:53:39.199Z,4.40
2023-05-26T03:56:08.162Z,4.80
2023-05-26T03:58:37.662Z,5.90
2023-05-26T04:01:06.439Z,4.80
2023-05-26T04:03:34.687Z,5.67
2023-05-26T04:06:04.985Z,5.30
2023-05-26T04:08:33.140Z,4.73
2023-05-26T04:11:01.300Z,5.53
2023-05-26T04:13:29.601Z,4.13
2023-05-26T04:15:59.098Z,4.27
2023-05-26T04:18:27.285Z,6.00
2023-05-26T04:20:55.472Z,4.17
2023-05-26T04:23:24.084Z,4.87
2023-05-26T04:25:56.838Z,4.80
2023-05-26T04:28:25.517Z,5.70
2023-05-26T04:30:53.871Z,5.53
2023-05-26T04:33:23.573Z,5.27
2023-05-26T04:35:51.748Z,4.87
2023-05-26T04:38:21.502Z,5.47
2023-05-26T04:40:50.523Z,5.57
2023-05-26T04:43:23.018Z,5.03
2023-05-26T04:45:52.911Z,5.87
2023-05-26T04:48:21.550Z,4.90
2023-05-26T04:50:51.491Z,4.57
2023-05-26T04:53:19.715Z,6.10
2023-05-26T04:55:48.409Z,5.90
2023-05-26T04:58:16.827Z,5.93
2023-05-26T05:00:45.372Z,6.07
2023-05-26T05:03:13.639Z,6.37
2023-05-26T05:05:42.151Z,7.37
2023-05-26T05:08:11.621Z,6.50
2023-05-26T05:10:39.914Z,6.83
2023-05-26T05:13:08.492Z,6.00
2023-05-26T05:15:36.930Z,7.40
2023-05-26T05:18:05.263Z,6.67
2023-05-26T05:20:33.458Z,6.23
2023-05-26T05:23:01.648Z,7.53
2023-05-26T05:25:31.677Z,6.87
2023-05-26T05:27:59.838Z,7.27
2023-05-26T05:30:28.030Z,7.70
2023-05-26T05:32:56.481Z,7.67
2023-05-26T05:35:24.963Z,9.60
2023-05-26T05:37:57.634Z,9.40
2023-05-26T05:40:25.953Z,8.50
2023-05-26T05:42:55.574Z,7.80
2023-05-26T05:45:24.059Z,9.20
2023-05-26T05:47:52.560Z,8.40
2023-05-26T05:50:20.904Z,9.63
2023-05-26T05:52:49.147Z,8.20
2023-05-26T05:55:17.632Z,8.00
2023-05-26T05:57:45.802Z,8.60
2023-05-26T06:00:16.213Z,8.23
2023-05-26T06:02:44.666Z,9.07
2023-05-26T06:05:13.205Z,9.57
2023-05-26T06:07:41.458Z,8.73
2023-05-26T06:10:10.774Z,9.83
2023-05-26T06:12:39.112Z,9.20
2023-05-26T06:15:08.813Z,9.03
2023-05-26T06:17:38.707Z,9.20
2023-05-26T06:20:08.417Z,8.80
2023-05-26T06:22:37.623Z,11.13
2023-05-26T06:25:06.518Z,9.00
2023-05-26T06:27:35.040Z,9.20
2023-05-26T06:30:03.698Z,10.40
2023-05-26T06:32:31.903Z,9.47
2023-05-26T06:35:02.084Z,9.70
2023-05-26T06:37:31.013Z,8.70
2023-05-26T06:39:59.244Z,8.77
2023-05-26T06:42:27.454Z,9.77
2023-05-26T06:44:55.805Z,10.00
2023-05-26T06:47:25.177Z,8.63
2023-05-26T06:49:54.213Z,9.80
2023-05-26T06:52:24.316Z,9.43
2023-05-26T06:54:52.550Z,9.70
2023-05-26T06:57:20.740Z,11.37
2023-05-26T06:59:49.000Z,9.40
2023-05-26T07:02:17.179Z,10.00
2023-05-26T07:04:46.895Z,9.97
2023-05-26T07:07:15.380Z,10.13
2023-05-26T07:09:46.869Z,9.83
2023-05-26T07:12:15.089Z,9.90
2023-05-26T07:14:43.647Z,10.50
2023-05-26T07:17:13.280Z,11.30
2023-05-26T07:19:41.759Z,10.57
2023-05-26T07:22:09.932Z,11.17
2023-05-26T07:24:38.235Z,10.60
2023-05-26T07:27:08.161Z,9.83
2023-05-26T07:29:36.340Z,10.20
2023-05-26T07:32:04.856Z,10.50
2023-05-26T07:34:33.232Z,9.57
2023-05-26T07:37:01.475Z,9.53
2023-05-26T07:39:29.864Z,11.17
2023-05-26T07:41:58.057Z,8.97
2023-05-26T07:44:27.873Z,9.67
2023-05-26T07:46:56.547Z,10.00
2023-05-26T07:49:24.798Z,9.57
2023-05-26T07:51:53.289Z,9.73
2023-05-26T07:54:21.550Z,10.30
2023-05-26T07:56:49.767Z,9.87
2023-05-26T07:59:18.419Z,9.30
2023-05-26T08:01:49.012Z,8.63
2023-05-26T08:04:17.249Z,9.53
2023-05-26T08:06:45.969Z,9.23
2023-05-26T08:09:14.225Z,9.03
2023-05-26T08:11:42.939Z,8.93
2023-05-26T08:14:11.229Z,9.30
2023-05-26T08:16:39.540Z,9.27
2023-05-26T08:19:09.177Z,9.07
2023-05-26T08:21:37.861Z,9.10
2023-05-26T08:24:06.731Z,9.37
2023-05-26T08:26:35.021Z,9.10
2023-05-26T08:29:03.297Z,8.93
2023-05-26T08:31:31.639Z,12.30
2023-05-26T08:33:59.864Z,10.33
2023-05-26T08:36:29.435Z,9.43
2023-05-26T08:38:57.610Z,8.83
2023-05-26T08:41:26.658Z,9.93
2023-05-26T08:44:06.833Z,8.47
2023-05-26T08:46:38.499Z,8.00
2023-05-26T08:49:07.851Z,9.10
2023-05-26T08:51:41.632Z,9.03
2023-05-26T08:54:09.889Z,9.10
2023-05-26T08:56:38.871Z,8.80
2023-05-26T09:01:39.095Z,9.83
2023-05-26T09:04:07.376Z,9.17
2023-05-26T09:06:37.312Z,8.30
2023-05-26T09:09:06.973Z,9.40
2023-05-26T09:14:43.926Z,10.83
2023-05-26T09:17:14.117Z,8.37
2023-05-26T09:19:42.495Z,10.00
2023-05-26T09:22:12.969Z,9.00
2023-05-26T09:24:46.277Z,8.60
2023-05-26T09:27:21.413Z,9.37
2023-05-26T09:29:51.491Z,8.47
2023-05-26T09:32:19.858Z,8.63
2023-05-26T09:34:51.890Z,10.03
2023-05-26T09:37:29.751Z,7.90
2023-05-26T09:40:07.464Z,9.17
2023-05-26T09:42:38.062Z,10.30
2023-05-26T09:45:06.727Z,8.80
2023-05-26T09:47:36.216Z,9.00
2023-05-26T09:50:06.188Z,8.70
2023-05-26T09:52:37.247Z,8.93
2023-05-26T09:55:06.365Z,7.60
2023-05-26T09:57:36.702Z,8.40
2023-05-26T10:00:08.793Z,8.60
2023-05-26T10:02:38.070Z,9.10
2023-05-26T10:05:07.933Z,8.90
2023-05-26T10:07:38.437Z,7.80
2023-05-26T10:10:09.776Z,8.27
2023-05-26T10:12:38.096Z,8.73
2023-05-26T10:15:07.170Z,8.80
2023-05-26T10:17:36.371Z,7.67
2023-05-26T10:20:06.388Z,8.33
2023-05-26T10:22:41.924Z,8.20
2023-05-26T10:25:19.905Z,9.20
2023-05-26T10:27:58.194Z,7.43
2023-05-26T10:30:28.485Z,6.90
2023-05-26T10:32:58.290Z,6.77
2023-05-26T10:35:29.077Z,7.03
2023-05-26T10:38:15.067Z,7.17
2023-05-26T10:40:47.564Z,7.70
2023-05-26T10:43:20.321Z,6.70
2023-05-26T10:45:53.716Z,7.23
2023-05-26T10:48:22.719Z,7.23
2023-05-26T10:51:17.509Z,7.33
2023-05-26T10:53:48.166Z,6.70
2023-05-26T10:56:19.374Z,7.23
2023-05-26T10:58:49.924Z,8.03
2023-05-26T11:01:23.980Z,8.20
2023-05-26T11:03:58.568Z,7.30
2023-05-26T11:06:42.886Z,6.93
2023-05-26T11:09:12.984Z,6.97
2023-05-26T11:11:51.881Z,6.90
2023-05-26T11:14:27.666Z,7.87
2023-05-26T11:17:00.616Z,7.00
2023-05-26T11:19:30.427Z,6.60
2023-05-26T11:21:59.390Z,6.33
2023-05-26T11:24:29.076Z,6.73
2023-05-26T11:26:57.270Z,6.23
2023-05-26T11:29:25.818Z,7.27
2023-05-26T11:31:54.503Z,7.00
2023-05-26T11:34:23.413Z,6.33
2023-05-26T11:36:54.797Z,6.73
2023-05-26T11:39:24.398Z,5.97
2023-05-26T11:41:54.015Z,6.10
2023-05-26T11:44:22.161Z,6.60
2023-05-26T11:46:50.310Z,7.00
2023-05-26T11:49:19.424Z,6.90
2023-05-26T11:51:48.542Z,6.00
2023-05-26T11:54:17.246Z,6.03
2023-05-26T11:56:46.820Z,6.00
2023-05-26T11:59:19.713Z,5.93
2023-05-26T12:01:48.254Z,6.50
2023-05-26T12:04:16.647Z,6.50
2023-05-26T12:06:46.391Z,5.63
2023-05-26T12:09:22.525Z,6.50
2023-05-26T12:11:52.642Z,6.63
2023-05-26T12:14:23.684Z,6.90
2023-05-26T12:16:55.680Z,6.23
2023-05-26T12:19:24.431Z,5.50
2023-05-26T12:21:57.063Z,5.77
2023-05-26T12:24:33.294Z,6.03
2023-05-26T12:27:07.597Z,6.37
2023-05-26T12:29:38.970Z,6.17
2023-05-26T12:32:08.465Z,4.80
2023-05-26T12:34:40.674Z,5.00
2023-05-26T12:37:09.768Z,5.20
2023-05-26T12:39:37.921Z,5.60
2023-05-26T12:42:06.958Z,4.63
2023-05-26T12:44:35.267Z,5.27
2023-05-26T12:47:05.327Z,5.37
2023-05-26T12:49:33.491Z,5.33
2023-05-26T12:52:01.754Z,5.77
2023-05-26T12:54:30.098Z,6.30
2023-05-26T12:56:58.585Z,5.67
2023-05-26T12:59:26.775Z,4.80
2023-05-26T13:01:56.199Z,5.30
2023-05-26T13:04:26.877Z,5.17
2023-05-26T13:06:57.871Z,4.90
2023-05-26T13:09:26.918Z,6.43
2023-05-26T13:11:55.173Z,6.83
2023-05-26T13:14:23.444Z,5.60
2023-05-26T13:16:51.866Z,5.23
2023-05-26T13:19:20.188Z,5.20
2023-05-26T13:21:49.766Z,5.43
2023-05-26T13:24:17.966Z,5.70
2023-05-26T13:26:46.196Z,6.13
2023-05-26T13:29:14.630Z,6.23
2023-05-26T13:31:43.162Z,5.80
2023-05-26T13:34:11.479Z,4.83
2023-05-26T13:36:41.100Z,5.43
2023-05-26T13:39:11.283Z,5.37
2023-05-26T13:41:39.453Z,5.10
2023-05-26T13:44:07.685Z,5.47
2023-05-26T13:46:35.932Z,5.67
2023-05-26T13:49:05.408Z,4.97
2023-05-26T13:51:34.221Z,4.63
2023-05-26T13:54:02.915Z,4.70
2023-05-26T13:56:32.673Z,4.23
2023-05-26T13:59:01.091Z,4.63
2023-05-26T14:04:01.460Z,5.10
2023-05-26T14:06:35.625Z,4.97
2023-05-26T14:09:04.810Z,4.30
2023-05-26T14:11:34.655Z,3.80
2023-05-26T14:14:03.139Z,4.37
2023-05-26T14:16:31.474Z,4.40
2023-05-26T14:19:05.353Z,4.03
2023-05-26T14:22:08.723Z,4.57
2023-05-26T14:24:31.451Z,4.93
2023-05-26T14:27:01.016Z,4.10
2023-05-26T14:29:29.360Z,4.90
2023-05-26T14:31:57.773Z,4.63
2023-05-26T14:34:26.227Z,4.70
2023-05-26T14:36:54.355Z,3.90
2023-05-26T14:39:22.600Z,4.23
2023-05-26T14:41:51.060Z,4.93
2023-05-26T14:44:20.612Z,4.63
2023-05-26T14:46:48.857Z,4.50
2023-05-26T14:49:17.126Z,3.87
2023-05-26T14:51:46.436Z,3.93
2023-05-26T14:54:14.616Z,4.00
2023-05-26T14:56:43.277Z,4.80
2023-05-26T14:59:12.731Z,4.37
2023-05-26T15:01:42.224Z,3.70
2023-05-26T15:04:14.811Z,4.47
2023-05-26T15:06:43.926Z,4.77
2023-05-26T15:09:13.787Z,3.83
2023-05-26T15:11:42.695Z,4.23
2023-05-26T15:14:10.864Z,4.07
2023-05-26T15:16:39.664Z,4.27
2023-05-26T15:19:09.361Z,3.93
2023-05-26T15:21:39.540Z,6.60
2023-05-26T15:24:08.702Z,3.80
2023-05-26T15:26:37.261Z,5.10
2023-05-26T15:29:05.562Z,4.40
2023-05-26T15:31:33.968Z,3.40
2023-05-26T15:34:02.239Z,4.00
2023-05-26T15:36:32.077Z,3.90
2023-05-26T15:39:03.110Z,4.13
2023-05-26T15:41:32.884Z,4.17
2023-05-26T15:44:03.532Z,3.53
2023-05-26T15:46:31.734Z,3.70
2023-05-26T15:49:00.049Z,4.20
2023-05-26T15:51:28.329Z,3.23
2023-05-26T15:53:58.023Z,4.30
2023-05-26T15:56:27.830Z,4.10
2023-05-26T15:58:56.654Z,3.50
2023-05-26T16:01:24.832Z,3.80
2023-05-26T16:03:53.151Z,3.80
2023-05-26T16:06:21.479Z,4.13
2023-05-26T16:08:49.703Z,3.90
2023-05-26T16:11:19.272Z,3.53
2023-05-26T16:13:48.283Z,3.03
2023-05-26T16:16:16.946Z,4.03
2023-05-26T16:18:45.552Z,3.30
2023-05-26T16:21:15.257Z,3.13
2023-05-26T16:23:44.554Z,4.70
2023-05-26T16:26:12.745Z,3.83
2023-05-26T16:28:42.278Z,4.43
2023-05-26T16:31:10.689Z,3.77
2023-05-26T16:33:39.167Z,3.53
2023-05-26T16:36:07.451Z,3.90
2023-05-26T16:38:36.248Z,3.70
2023-05-26T16:41:05.080Z,4.40
2023-05-26T16:43:46.880Z,3.50
2023-05-26T16:46:18.254Z,3.60
2023-05-26T16:48:46.459Z,3.60
2023-05-26T16:51:14.795Z,3.50
2023-05-26T16:53:43.056Z,3.40
2023-05-26T16:56:11.321Z,3.73
2023-05-26T16:58:39.981Z,2.93
2023-05-26T17:01:08.187Z,3.23
2023-05-26T17:03:38.084Z,2.40
2023-05-26T17:06:06.467Z,3.03
2023-05-26T17:08:34.652Z,3.97
2023-05-26T17:11:02.849Z,3.70
2023-05-26T17:13:31.289Z,4.47
2023-05-26T17:16:00.274Z,3.43
2023-05-26T17:18:28.497Z,3.27
2023-05-26T17:20:58.160Z,3.67
2023-05-26T17:23:26.636Z,3.27
2023-05-26T17:25:54.774Z,2.60
2023-05-26T17:28:23.111Z,3.00
2023-05-26T17:30:51.336Z,3.33
2023-05-26T17:33:19.613Z,3.53
2023-05-26T17:35:47.838Z,3.33
2023-05-26T17:38:17.405Z,2.60
2023-05-26T17:40:45.672Z,2.80
2023-05-26T17:43:13.837Z,2.97
2023-05-26T17:45:42.100Z,3.10
2023-05-26T17:48:10.414Z,3.33
2023-05-26T17:50:38.595Z,2.83
2023-05-26T17:53:06.787Z,3.20
2023-05-26T17:55:38.277Z,3.23
2023-05-26T17:58:06.750Z,3.03
2023-05-26T18:00:35.000Z,3.37
2023-05-26T18:03:03.366Z,3.07
2023-05-26T18:05:32.805Z,3.73
2023-05-26T18:08:01.612Z,3.30
2023-05-26T18:10:30.540Z,3.43
2023-05-26T18:13:00.300Z,3.33
2023-05-26T18:15:28.589Z,3.40
2023-05-26T18:17:56.923Z,3.57
2023-05-26T18:20:26.639Z,3.83
2023-05-26T18:22:56.211Z,3.10
2023-05-26T18:25:25.149Z,3.00
2023-05-26T18:27:56.043Z,2.90
2023-05-26T18:30:25.766Z,3.40
2023-05-26T18:32:54.634Z,3.87
2023-05-26T18:35:23.450Z,3.20
2023-05-26T18:37:51.765Z,4.37
2023-05-26T18:40:20.335Z,3.10
2023-05-26T18:42:48.720Z,3.50
2023-05-26T18:45:17.534Z,3.37
2023-05-26T18:47:47.396Z,3.37
2023-05-26T18:50:17.165Z,3.70
2023-05-26T18:52:45.668Z,3.47
2023-05-26T18:55:13.983Z,3.20
2023-05-26T18:57:42.264Z,4.23
2023-05-26T19:00:15.595Z,3.80
2023-05-26T19:02:44.287Z,3.60
2023-05-26T19:05:14.170Z,3.30
2023-05-26T19:07:42.850Z,3.53
2023-05-26T19:10:11.468Z,3.47
2023-05-26T19:12:42.308Z,3.40
2023-05-26T19:15:11.387Z,4.30
2023-05-26T19:17:39.596Z,3.67
2023-05-26T19:20:11.927Z,4.00
2023-05-26T19:22:42.831Z,3.50
2023-05-26T19:25:11.486Z,3.97
2023-05-26T19:27:39.738Z,3.70
2023-05-26T19:30:10.723Z,3.27
2023-05-26T19:32:39.478Z,4.03
2023-05-26T19:35:08.464Z,4.90
2023-05-26T19:37:39.183Z,4.73
2023-05-26T19:40:09.971Z,4.27
2023-05-26T19:42:38.278Z,4.40
2023-05-26T19:45:07.410Z,3.63
2023-05-26T19:47:35.562Z,4.13
2023-05-26T19:50:03.876Z,3.40
2023-05-26T19:52:32.094Z,3.63
2023-05-26T19:55:00.803Z,3.73
2023-05-26T19:57:32.716Z,3.23
2023-05-26T20:00:01.236Z,3.50
2023-05-26T20:02:29.563Z,3.10
2023-05-26T20:04:58.055Z,4.27
2023-05-26T20:07:26.311Z,4.47
2023-05-26T20:09:54.485Z,3.90
2023-05-26T20:12:22.772Z,3.80
2023-05-26T20:14:52.313Z,3.93
2023-05-26T20:17:20.722Z,4.00
2023-05-26T20:20:05.529Z,3.67
2023-05-26T20:22:37.069Z,3.80
2023-05-26T20:25:06.887Z,3.40
2023-05-26T20:27:36.205Z,3.97
2023-05-26T20:30:07.215Z,3.73
2023-05-26T20:32:35.475Z,4.00
2023-05-26T20:35:04.005Z,3.50
2023-05-26T20:37:32.543Z,3.87
2023-05-26T20:40:01.473Z,3.67
2023-05-26T20:42:32.640Z,3.50
2023-05-26T20:45:02.042Z,4.63
2023-05-26T20:47:31.920Z,4.17
2023-05-26T20:50:00.210Z,3.87
2023-05-26T20:52:28.432Z,3.37
2023-05-26T20:54:56.916Z,3.73
2023-05-26T20:57:26.119Z,3.33
2023-05-26T20:59:54.358Z,3.17
2023-05-26T21:02:22.655Z,3.60
2023-05-26T21:04:52.281Z,3.37
2023-05-26T21:07:20.782Z,3.80
2023-05-26T21:09:48.967Z,3.50
2023-05-26T21:12:18.703Z,3.20
2023-05-26T21:14:47.461Z,3.47
2023-05-26T21:17:16.826Z,5.00
2023-05-26T21:19:45.076Z,3.33
2023-05-26T21:22:14.657Z,3.43
2023-05-26T21:24:42.890Z,4.33
2023-05-26T21:27:11.107Z,4.10
2023-05-26T21:29:39.302Z,4.40
2023-05-26T21:32:07.625Z,3.63
2023-05-26T21:34:35.861Z,3.80
2023-05-26T21:37:04.084Z,4.40
2023-05-26T21:39:33.720Z,4.30
2023-05-26T21:42:01.945Z,3.60
2023-05-26T21:44:30.329Z,3.90
2023-05-26T21:46:58.846Z,3.67
2023-05-26T21:49:27.138Z,3.80
2023-05-26T21:51:55.380Z,4.00
2023-05-26T21:54:23.634Z,3.63
2023-05-26T21:56:53.212Z,3.83
2023-05-26T21:59:21.412Z,4.00
2023-05-26T22:01:49.905Z,3.87
2023-05-26T22:04:18.242Z,4.03
2023-05-26T22:06:46.533Z,3.70
2023-05-26T22:09:14.755Z,4.70
2023-05-26T22:11:42.958Z,3.80
2023-05-26T22:14:21.900Z,4.20
2023-05-26T22:16:53.239Z,4.87
2023-05-26T22:19:21.456Z,3.43
2023-05-26T22:21:49.880Z,3.93
2023-05-26T22:24:18.177Z,3.90
2023-05-26T22:26:46.340Z,3.43
2023-05-26T22:29:15.923Z,4.13
2023-05-26T22:31:44.162Z,4.40
2023-05-26T22:34:12.442Z,4.23
2023-05-26T22:36:40.669Z,4.17
2023-05-26T22:39:08.918Z,4.70
2023-05-26T22:41:37.104Z,4.23
2023-05-26T22:44:05.321Z,3.33
2023-05-26T22:46:34.944Z,3.57
2023-05-26T22:49:03.513Z,4.53
2023-05-26T22:51:32.860Z,4.00
2023-05-26T22:54:01.896Z,4.40
2023-05-26T22:56:30.044Z,3.90
2023-05-26T22:58:58.237Z,4.37
2023-05-26T23:01:27.756Z,4.10
2023-05-26T23:03:57.453Z,4.27
2023-05-26T23:06:25.700Z,3.67
2023-05-26T23:08:53.883Z,4.33
2023-05-26T23:11:22.047Z,5.47
2023-05-26T23:13:50.816Z,3.67
2023-05-26T23:16:19.129Z,4.43
2023-05-26T23:18:47.612Z,3.47
2023-05-26T23:21:17.463Z,3.50
2023-05-26T23:23:46.864Z,4.10
2023-05-26T23:26:15.050Z,3.90
2023-05-26T23:28:43.259Z,4.30
2023-05-26T23:31:11.635Z,4.10
2023-05-26T23:33:40.781Z,5.00
2023-05-26T23:36:09.856Z,4.63
2023-05-26T23:38:39.391Z,4.20
2023-05-26T23:41:07.982Z,3.43
2023-05-26T23:43:36.158Z,4.50
2023-05-26T23:46:04.606Z,3.50
2023-05-26T23:48:32.824Z,4.53
2023-05-26T23:51:01.134Z,4.00
2023-05-26T23:53:29.609Z,4.50
2023-05-26T23:55:59.171Z,4.00
2023-05-26T23:58:27.358Z,4.23
